sensor_id;sensor_type;location;lat;lon;timestamp;pressure;altitude;pressure_sealevel;temperature;humidity
36834;BME280;48003;52.084;5.224;2022-11-20T00:00:51;101483.0;;;1.65;68.25
36834;BME280;48003;52.084;5.224;2022-11-20T00:02:27;101477.0;;;1.63;68.08
36834;BME280;48003;52.084;5.224;2022-11-20T00:04:03;101480.0;;;1.63;68.25
36834;BME280;48003;52.084;5.224;2022-11-20T00:05:39;101485.0;;;1.61;67.97
36834;BME280;48003;52.084;5.224;2022-11-20T00:08:54;101489.0;;;1.53;68.08
36834;BME280;48003;52.084;5.224;2022-11-20T00:10:31;101497.0;;;1.51;68.16
36834;BME280;48003;52.084;5.224;2022-11-20T00:12:08;101495.0;;;1.5;68.61
36834;BME280;48003;52.084;5.224;2022-11-20T00:15:21;101495.0;;;1.57;68.64
36834;BME280;48003;52.084;5.224;2022-11-20T00:16:57;101495.0;;;1.62;68.49
36834;BME280;48003;52.084;5.224;2022-11-20T00:18:34;101486.0;;;1.58;68.66
36834;BME280;48003;52.084;5.224;2022-11-20T00:20:11;101487.0;;;1.56;68.74
36834;BME280;48003;52.084;5.224;2022-11-20T00:23:27;101490.0;;;1.51;68.64
36834;BME280;48003;52.084;5.224;2022-11-20T00:25:04;101487.0;;;1.49;68.41
36834;BME280;48003;52.084;5.224;2022-11-20T00:26:41;101485.0;;;1.47;68.58
36834;BME280;48003;52.084;5.224;2022-11-20T00:29:53;101481.0;;;1.45;68.52
36834;BME280;48003;52.084;5.224;2022-11-20T00:31:30;101481.0;;;1.46;68.48
36834;BME280;48003;52.084;5.224;2022-11-20T00:33:06;101476.0;;;1.44;68.62
36834;BME280;48003;52.084;5.224;2022-11-20T00:36:20;101473.0;;;1.41;68.66
36834;BME280;48003;52.084;5.224;2022-11-20T00:37:58;101464.0;;;1.39;68.52
36834;BME280;48003;52.084;5.224;2022-11-20T00:39:34;101460.0;;;1.35;68.72
36834;BME280;48003;52.084;5.224;2022-11-20T00:41:12;101457.0;;;1.4;68.58
36834;BME280;48003;52.084;5.224;2022-11-20T00:44:26;101455.0;;;1.37;68.52
36834;BME280;48003;52.084;5.224;2022-11-20T00:46:04;101448.0;;;1.35;68.61
36834;BME280;48003;52.084;5.224;2022-11-20T00:47:41;101449.0;;;1.36;68.61
36834;BME280;48003;52.084;5.224;2022-11-20T00:50:55;101450.0;;;1.3;68.58
36834;BME280;48003;52.084;5.224;2022-11-20T00:52:33;101448.0;;;1.27;68.64
36834;BME280;48003;52.084;5.224;2022-11-20T00:54:10;101449.0;;;1.23;68.69
36834;BME280;48003;52.084;5.224;2022-11-20T00:55:53;101452.0;;;1.23;68.78
36834;BME280;48003;52.084;5.224;2022-11-20T00:59:05;101455.0;;;1.19;68.83
36834;BME280;48003;52.084;5.224;2022-11-20T01:00:42;101455.0;;;1.16;68.77
36834;BME280;48003;52.084;5.224;2022-11-20T01:02:18;101458.0;;;1.18;68.89
36834;BME280;48003;52.084;5.224;2022-11-20T01:05:34;101456.0;;;1.17;69.09
36834;BME280;48003;52.084;5.224;2022-11-20T01:07:10;101460.0;;;1.18;69.2
36834;BME280;48003;52.084;5.224;2022-11-20T01:08:48;101461.0;;;1.22;69.11
36834;BME280;48003;52.084;5.224;2022-11-20T01:10:25;101463.0;;;1.21;69.31
36834;BME280;48003;52.084;5.224;2022-11-20T01:13:37;101468.0;;;1.19;69.31
36834;BME280;48003;52.084;5.224;2022-11-20T01:15:13;101469.0;;;1.19;69.33
36834;BME280;48003;52.084;5.224;2022-11-20T01:16:51;101467.0;;;1.16;69.55
36834;BME280;48003;52.084;5.224;2022-11-20T01:20:05;101467.0;;;1.16;69.44
36834;BME280;48003;52.084;5.224;2022-11-20T01:21:44;101465.0;;;1.21;68.92
36834;BME280;48003;52.084;5.224;2022-11-20T01:23:21;101458.0;;;1.21;68.69
36834;BME280;48003;52.084;5.224;2022-11-20T01:26:35;101455.0;;;1.19;68.47
36834;BME280;48003;52.084;5.224;2022-11-20T01:28:12;101453.0;;;1.12;68.55
36834;BME280;48003;52.084;5.224;2022-11-20T01:29:48;101448.0;;;1.07;68.61
36834;BME280;48003;52.084;5.224;2022-11-20T01:31:26;101450.0;;;1.07;68.94
36834;BME280;48003;52.084;5.224;2022-11-20T01:34:40;101447.0;;;1.12;69.16
36834;BME280;48003;52.084;5.224;2022-11-20T01:36:18;101443.0;;;1.06;69.0
36834;BME280;48003;52.084;5.224;2022-11-20T01:37:55;101443.0;;;1.03;68.94
36834;BME280;48003;52.084;5.224;2022-11-20T01:41:09;101441.0;;;1.01;68.87
36834;BME280;48003;52.084;5.224;2022-11-20T01:43:50;101444.0;;;1.01;69.27
36834;BME280;48003;52.084;5.224;2022-11-20T01:45:56;101446.0;;;0.99;69.2
36834;BME280;48003;52.084;5.224;2022-11-20T01:47:37;101449.0;;;0.98;69.16
36834;BME280;48003;52.084;5.224;2022-11-20T01:49:18;101455.0;;;0.89;69.72
36834;BME280;48003;52.084;5.224;2022-11-20T01:51:00;101449.0;;;0.87;69.83
36834;BME280;48003;52.084;5.224;2022-11-20T01:52:39;101450.0;;;0.86;70.05
36834;BME280;48003;52.084;5.224;2022-11-20T01:54:22;101448.0;;;0.86;70.24
36834;BME280;48003;52.084;5.224;2022-11-20T01:57:43;101450.0;;;0.87;70.36
36834;BME280;48003;52.084;5.224;2022-11-20T01:59:23;101447.0;;;0.87;70.16
36834;BME280;48003;52.084;5.224;2022-11-20T02:01:03;101452.0;;;0.91;69.67
36834;BME280;48003;52.084;5.224;2022-11-20T02:02:43;101447.0;;;0.9;69.61
36834;BME280;48003;52.084;5.224;2022-11-20T02:06:04;101441.0;;;0.88;69.16
36834;BME280;48003;52.084;5.224;2022-11-20T02:07:43;101445.0;;;0.89;69.3
36834;BME280;48003;52.084;5.224;2022-11-20T02:09:20;101439.0;;;0.81;69.12
36834;BME280;48003;52.084;5.224;2022-11-20T02:13:50;101439.0;;;0.72;69.36
36834;BME280;48003;52.084;5.224;2022-11-20T02:16:09;101434.0;;;0.63;69.91
36834;BME280;48003;52.084;5.224;2022-11-20T02:17:47;101431.0;;;0.65;69.94
36834;BME280;48003;52.084;5.224;2022-11-20T02:19:27;101428.0;;;0.63;69.58
36834;BME280;48003;52.084;5.224;2022-11-20T02:22:54;101423.0;;;0.57;69.98
36834;BME280;48003;52.084;5.224;2022-11-20T02:24:33;101421.0;;;0.52;70.44
36834;BME280;48003;52.084;5.224;2022-11-20T02:26:12;101419.0;;;0.46;70.08
36834;BME280;48003;52.084;5.224;2022-11-20T02:27:51;101419.0;;;0.44;70.05
36834;BME280;48003;52.084;5.224;2022-11-20T02:31:10;101424.0;;;0.47;70.08
36834;BME280;48003;52.084;5.224;2022-11-20T02:32:46;101421.0;;;0.49;70.67
36834;BME280;48003;52.084;5.224;2022-11-20T02:34:22;101423.0;;;0.53;70.48
36834;BME280;48003;52.084;5.224;2022-11-20T02:37:37;101420.0;;;0.57;70.47
36834;BME280;48003;52.084;5.224;2022-11-20T02:39:16;101421.0;;;0.6;70.22
36834;BME280;48003;52.084;5.224;2022-11-20T02:40:53;101419.0;;;0.59;70.27
36834;BME280;48003;52.084;5.224;2022-11-20T02:42:29;101422.0;;;0.59;69.89
36834;BME280;48003;52.084;5.224;2022-11-20T02:45:41;101425.0;;;0.57;70.05
36834;BME280;48003;52.084;5.224;2022-11-20T02:47:18;101433.0;;;0.58;70.2
36834;BME280;48003;52.084;5.224;2022-11-20T02:48:54;101433.0;;;0.59;69.92
36834;BME280;48003;52.084;5.224;2022-11-20T02:52:06;101432.0;;;0.59;70.41
36834;BME280;48003;52.084;5.224;2022-11-20T02:53:43;101430.0;;;0.63;70.16
36834;BME280;48003;52.084;5.224;2022-11-20T02:55:19;101423.0;;;0.63;70.23
36834;BME280;48003;52.084;5.224;2022-11-20T02:58:31;101421.0;;;0.61;69.99
36834;BME280;48003;52.084;5.224;2022-11-20T03:00:08;101417.0;;;0.63;70.02
36834;BME280;48003;52.084;5.224;2022-11-20T03:01:45;101414.0;;;0.61;70.23
36834;BME280;48003;52.084;5.224;2022-11-20T03:03:21;101418.0;;;0.58;70.14
36834;BME280;48003;52.084;5.224;2022-11-20T03:06:34;101415.0;;;0.59;70.87
36834;BME280;48003;52.084;5.224;2022-11-20T03:08:10;101417.0;;;0.58;70.86
36834;BME280;48003;52.084;5.224;2022-11-20T03:09:46;101414.0;;;0.6;70.52
36834;BME280;48003;52.084;5.224;2022-11-20T03:13:00;101403.0;;;0.73;70.06
36834;BME280;48003;52.084;5.224;2022-11-20T03:14:36;101399.0;;;0.69;70.2
36834;BME280;48003;52.084;5.224;2022-11-20T03:16:15;101402.0;;;0.7;70.22
36834;BME280;48003;52.084;5.224;2022-11-20T03:19:30;101398.0;;;0.63;70.08
36834;BME280;48003;52.084;5.224;2022-11-20T03:21:07;101397.0;;;0.58;69.86
36834;BME280;48003;52.084;5.224;2022-11-20T03:22:43;101395.0;;;0.5;69.87
36834;BME280;48003;52.084;5.224;2022-11-20T03:24:19;101401.0;;;0.44;70.53
36834;BME280;48003;52.084;5.224;2022-11-20T03:27:33;101397.0;;;0.53;70.03
36834;BME280;48003;52.084;5.224;2022-11-20T03:29:09;101399.0;;;0.54;70.23
36834;BME280;48003;52.084;5.224;2022-11-20T03:30:45;101401.0;;;0.58;70.11
36834;BME280;48003;52.084;5.224;2022-11-20T03:33:58;101394.0;;;0.72;69.81
36834;BME280;48003;52.084;5.224;2022-11-20T03:35:35;101392.0;;;0.67;69.7
36834;BME280;48003;52.084;5.224;2022-11-20T03:37:11;101392.0;;;0.6;69.33
36834;BME280;48003;52.084;5.224;2022-11-20T03:40:24;101393.0;;;0.52;69.69
36834;BME280;48003;52.084;5.224;2022-11-20T03:42:00;101389.0;;;0.45;69.92
36834;BME280;48003;52.084;5.224;2022-11-20T03:43:37;101385.0;;;0.45;70.09
36834;BME280;48003;52.084;5.224;2022-11-20T03:46:52;101386.0;;;0.42;70.19
36834;BME280;48003;52.084;5.224;2022-11-20T03:48:28;101385.0;;;0.41;69.81
36834;BME280;48003;52.084;5.224;2022-11-20T03:50:06;101385.0;;;0.33;69.72
36834;BME280;48003;52.084;5.224;2022-11-20T03:51:43;101382.0;;;0.34;69.8
36834;BME280;48003;52.084;5.224;2022-11-20T03:54:56;101375.0;;;0.25;69.91
36834;BME280;48003;52.084;5.224;2022-11-20T03:56:34;101373.0;;;0.13;70.42
36834;BME280;48003;52.084;5.224;2022-11-20T03:58:11;101371.0;;;0.06;70.49
36834;BME280;48003;52.084;5.224;2022-11-20T04:01:25;101376.0;;;0.05;70.8
36834;BME280;48003;52.084;5.224;2022-11-20T04:03:03;101371.0;;;0.08;70.86
36834;BME280;48003;52.084;5.224;2022-11-20T04:04:39;101377.0;;;0.12;70.94
36834;BME280;48003;52.084;5.224;2022-11-20T04:06:17;101371.0;;;0.09;70.83
36834;BME280;48003;52.084;5.224;2022-11-20T04:09:31;101368.0;;;0.15;71.11
36834;BME280;48003;52.084;5.224;2022-11-20T04:11:09;101364.0;;;0.11;70.86
36834;BME280;48003;52.084;5.224;2022-11-20T04:12:46;101364.0;;;0.09;71.38
36834;BME280;48003;52.084;5.224;2022-11-20T04:15:58;101363.0;;;0.11;71.22
36834;BME280;48003;52.084;5.224;2022-11-20T04:17:35;101355.0;;;0.12;70.88
36834;BME280;48003;52.084;5.224;2022-11-20T04:19:14;101353.0;;;0.17;70.91
36834;BME280;48003;52.084;5.224;2022-11-20T04:20:51;101350.0;;;0.05;70.55
36834;BME280;48003;52.084;5.224;2022-11-20T04:24:06;101358.0;;;-0.04;70.62
36834;BME280;48003;52.084;5.224;2022-11-20T04:25:43;101358.0;;;-0.07;70.88
36834;BME280;48003;52.084;5.224;2022-11-20T04:27:19;101357.0;;;0.01;70.92
36834;BME280;48003;52.084;5.224;2022-11-20T04:30:32;101351.0;;;0.05;70.87
36834;BME280;48003;52.084;5.224;2022-11-20T04:32:08;101348.0;;;0.06;70.61
36834;BME280;48003;52.084;5.224;2022-11-20T04:33:45;101347.0;;;0.09;70.47
36834;BME280;48003;52.084;5.224;2022-11-20T04:36:57;101341.0;;;0.15;70.48
36834;BME280;48003;52.084;5.224;2022-11-20T04:38:33;101342.0;;;0.08;70.55
36834;BME280;48003;52.084;5.224;2022-11-20T04:40:10;101347.0;;;-0.03;70.52
36834;BME280;48003;52.084;5.224;2022-11-20T04:41:47;101351.0;;;-0.12;70.64
36834;BME280;48003;52.084;5.224;2022-11-20T04:44:59;101349.0;;;-0.15;70.61
36834;BME280;48003;52.084;5.224;2022-11-20T04:46:37;101350.0;;;-0.15;70.77
36834;BME280;48003;52.084;5.224;2022-11-20T04:48:14;101351.0;;;-0.14;70.64
36834;BME280;48003;52.084;5.224;2022-11-20T04:51:27;101352.0;;;-0.11;70.44
36834;BME280;48003;52.084;5.224;2022-11-20T04:53:03;101347.0;;;-0.11;70.53
36834;BME280;48003;52.084;5.224;2022-11-20T04:54:39;101340.0;;;-0.1;70.33
36834;BME280;48003;52.084;5.224;2022-11-20T04:57:53;101340.0;;;-0.12;70.53
36834;BME280;48003;52.084;5.224;2022-11-20T04:59:29;101334.0;;;-0.13;70.19
36834;BME280;48003;52.084;5.224;2022-11-20T05:01:06;101330.0;;;-0.15;70.37
36834;BME280;48003;52.084;5.224;2022-11-20T05:02:43;101322.0;;;-0.16;70.61
36834;BME280;48003;52.084;5.224;2022-11-20T05:05:56;101319.0;;;-0.19;70.38
36834;BME280;48003;52.084;5.224;2022-11-20T05:07:32;101319.0;;;-0.25;70.55
36834;BME280;48003;52.084;5.224;2022-11-20T05:09:08;101314.0;;;-0.23;70.49
36834;BME280;48003;52.084;5.224;2022-11-20T05:12:20;101315.0;;;-0.32;70.53
36834;BME280;48003;52.084;5.224;2022-11-20T05:13:58;101314.0;;;-0.36;70.69
36834;BME280;48003;52.084;5.224;2022-11-20T05:15:35;101315.0;;;-0.41;70.75
36834;BME280;48003;52.084;5.224;2022-11-20T05:18:48;101314.0;;;-0.38;71.13
36834;BME280;48003;52.084;5.224;2022-11-20T05:20:26;101313.0;;;-0.42;70.94
36834;BME280;48003;52.084;5.224;2022-11-20T05:22:04;101313.0;;;-0.43;70.91
36834;BME280;48003;52.084;5.224;2022-11-20T05:23:41;101315.0;;;-0.41;71.02
36834;BME280;48003;52.084;5.224;2022-11-20T05:26:55;101307.0;;;-0.4;71.02
36834;BME280;48003;52.084;5.224;2022-11-20T05:28:32;101307.0;;;-0.38;71.22
36834;BME280;48003;52.084;5.224;2022-11-20T05:30:09;101308.0;;;-0.37;71.19
36834;BME280;48003;52.084;5.224;2022-11-20T05:33:24;101305.0;;;-0.36;71.02
36834;BME280;48003;52.084;5.224;2022-11-20T05:35:00;101310.0;;;-0.35;70.64
36834;BME280;48003;52.084;5.224;2022-11-20T05:36:36;101305.0;;;-0.36;70.87
36834;BME280;48003;52.084;5.224;2022-11-20T05:38:12;101303.0;;;-0.41;70.94
36834;BME280;48003;52.084;5.224;2022-11-20T05:41:25;101305.0;;;-0.46;71.02
36834;BME280;48003;52.084;5.224;2022-11-20T05:43:01;101309.0;;;-0.45;70.77
36834;BME280;48003;52.084;5.224;2022-11-20T05:44:38;101315.0;;;-0.43;70.77
36834;BME280;48003;52.084;5.224;2022-11-20T05:47:57;101310.0;;;-0.5;70.66
36834;BME280;48003;52.084;5.224;2022-11-20T05:49:35;101309.0;;;-0.47;70.83
36834;BME280;48003;52.084;5.224;2022-11-20T05:51:13;101308.0;;;-0.49;70.55
36834;BME280;48003;52.084;5.224;2022-11-20T05:52:51;101313.0;;;-0.53;70.47
36834;BME280;48003;52.084;5.224;2022-11-20T05:56:07;101322.0;;;-0.47;70.5
36834;BME280;48003;52.084;5.224;2022-11-20T05:57:45;101330.0;;;-0.54;70.83
36834;BME280;48003;52.084;5.224;2022-11-20T05:59:21;101334.0;;;-0.56;70.73
36834;BME280;48003;52.084;5.224;2022-11-20T06:02:41;101337.0;;;-0.37;70.72
36834;BME280;48003;52.084;5.224;2022-11-20T06:05:54;101336.0;;;-0.35;71.3
36834;BME280;48003;52.084;5.224;2022-11-20T06:07:30;101337.0;;;-0.35;71.02
36834;BME280;48003;52.084;5.224;2022-11-20T06:10:42;101338.0;;;-0.38;70.61
36834;BME280;48003;52.084;5.224;2022-11-20T06:12:18;101339.0;;;-0.4;70.59
36834;BME280;48003;52.084;5.224;2022-11-20T06:13:55;101339.0;;;-0.38;70.44
36834;BME280;48003;52.084;5.224;2022-11-20T06:17:07;101339.0;;;-0.42;70.08
36834;BME280;48003;52.084;5.224;2022-11-20T06:18:44;101341.0;;;-0.41;70.23
36834;BME280;48003;52.084;5.224;2022-11-20T06:20:20;101330.0;;;-0.41;70.52
36834;BME280;48003;52.084;5.224;2022-11-20T06:23:34;101330.0;;;-0.39;70.49
36834;BME280;48003;52.084;5.224;2022-11-20T06:25:13;101330.0;;;-0.38;70.58
36834;BME280;48003;52.084;5.224;2022-11-20T06:26:49;101326.0;;;-0.44;70.38
36834;BME280;48003;52.084;5.224;2022-11-20T06:28:25;101328.0;;;-0.42;70.5
36834;BME280;48003;52.084;5.224;2022-11-20T06:31:39;101331.0;;;-0.42;70.27
36834;BME280;48003;52.084;5.224;2022-11-20T06:33:15;101323.0;;;-0.49;70.63
36834;BME280;48003;52.084;5.224;2022-11-20T06:34:51;101324.0;;;-0.44;70.74
36834;BME280;48003;52.084;5.224;2022-11-20T06:38:03;101326.0;;;-0.44;70.81
36834;BME280;48003;52.084;5.224;2022-11-20T06:39:42;101330.0;;;-0.46;70.64
36834;BME280;48003;52.084;5.224;2022-11-20T06:41:19;101330.0;;;-0.42;70.74
36834;BME280;48003;52.084;5.224;2022-11-20T06:44:33;101326.0;;;-0.42;70.84
36834;BME280;48003;52.084;5.224;2022-11-20T06:46:11;101334.0;;;-0.4;70.74
36834;BME280;48003;52.084;5.224;2022-11-20T06:47:48;101330.0;;;-0.41;70.44
36834;BME280;48003;52.084;5.224;2022-11-20T06:49:25;101330.0;;;-0.47;70.47
36834;BME280;48003;52.084;5.224;2022-11-20T06:52:39;101321.0;;;-0.43;70.45
36834;BME280;48003;52.084;5.224;2022-11-20T06:54:16;101317.0;;;-0.45;70.62
36834;BME280;48003;52.084;5.224;2022-11-20T06:55:55;101314.0;;;-0.53;70.77
36834;BME280;48003;52.084;5.224;2022-11-20T06:59:08;101312.0;;;-0.52;70.74
36834;BME280;48003;52.084;5.224;2022-11-20T07:00:44;101312.0;;;-0.55;70.97
36834;BME280;48003;52.084;5.224;2022-11-20T07:02:21;101306.0;;;-0.6;71.06
36834;BME280;48003;52.084;5.224;2022-11-20T07:03:57;101305.0;;;-0.63;71.27
36834;BME280;48003;52.084;5.224;2022-11-20T07:07:10;101305.0;;;-0.59;71.28
36834;BME280;48003;52.084;5.224;2022-11-20T07:08:47;101300.0;;;-0.62;71.36
36834;BME280;48003;52.084;5.224;2022-11-20T07:10:23;101303.0;;;-0.54;71.72
36834;BME280;48003;52.084;5.224;2022-11-20T07:13:36;101299.0;;;-0.45;71.52
36834;BME280;48003;52.084;5.224;2022-11-20T07:15:12;101306.0;;;-0.45;71.45
36834;BME280;48003;52.084;5.224;2022-11-20T07:16:49;101307.0;;;-0.41;71.38
36834;BME280;48003;52.084;5.224;2022-11-20T07:20:02;101302.0;;;-0.32;71.61
36834;BME280;48003;52.084;5.224;2022-11-20T07:21:38;101300.0;;;-0.33;70.95
36834;BME280;48003;52.084;5.224;2022-11-20T07:23:14;101294.0;;;-0.36;71.58
36834;BME280;48003;52.084;5.224;2022-11-20T07:24:50;101291.0;;;-0.34;71.59
36834;BME280;48003;52.084;5.224;2022-11-20T07:28:04;101291.0;;;-0.32;71.49
36834;BME280;48003;52.084;5.224;2022-11-20T07:29:40;101288.0;;;-0.27;71.44
36834;BME280;48003;52.084;5.224;2022-11-20T07:31:16;101293.0;;;-0.32;71.72
36834;BME280;48003;52.084;5.224;2022-11-20T07:34:31;101293.0;;;-0.28;71.78
36834;BME280;48003;52.084;5.224;2022-11-20T07:36:07;101294.0;;;-0.34;71.8
36834;BME280;48003;52.084;5.224;2022-11-20T07:37:45;101297.0;;;-0.26;71.98
36834;BME280;48003;52.084;5.224;2022-11-20T07:41:01;101301.0;;;-0.31;72.16
36834;BME280;48003;52.084;5.224;2022-11-20T07:42:38;101307.0;;;-0.26;72.3
36834;BME280;48003;52.084;5.224;2022-11-20T07:44:14;101300.0;;;-0.16;72.37
36834;BME280;48003;52.084;5.224;2022-11-20T07:45:50;101302.0;;;-0.14;72.52
36834;BME280;48003;52.084;5.224;2022-11-20T07:49:05;101305.0;;;-0.15;73.05
36834;BME280;48003;52.084;5.224;2022-11-20T07:50:41;101308.0;;;-0.1;73.08
36834;BME280;48003;52.084;5.224;2022-11-20T07:52:17;101308.0;;;-0.06;73.19
36834;BME280;48003;52.084;5.224;2022-11-20T07:55:30;101307.0;;;0.0;73.14
36834;BME280;48003;52.084;5.224;2022-11-20T07:57:07;101305.0;;;0.08;73.17
36834;BME280;48003;52.084;5.224;2022-11-20T07:58:43;101301.0;;;0.11;73.28
36834;BME280;48003;52.084;5.224;2022-11-20T08:01:55;101301.0;;;0.22;73.11
36834;BME280;48003;52.084;5.224;2022-11-20T08:03:32;101295.0;;;0.27;73.22
36834;BME280;48003;52.084;5.224;2022-11-20T08:05:09;101288.0;;;0.31;73.25
36834;BME280;48003;52.084;5.224;2022-11-20T08:06:46;101277.0;;;0.36;73.37
36834;BME280;48003;52.084;5.224;2022-11-20T08:09:59;101272.0;;;0.43;73.09
36834;BME280;48003;52.084;5.224;2022-11-20T08:15:48;101277.0;;;0.59;73.33
36834;BME280;48003;52.084;5.224;2022-11-20T08:17:25;101280.0;;;0.84;72.8
36834;BME280;48003;52.084;5.224;2022-11-20T08:20:38;101276.0;;;0.96;72.67
36834;BME280;48003;52.084;5.224;2022-11-20T08:22:16;101274.0;;;1.16;72.25
36834;BME280;48003;52.084;5.224;2022-11-20T08:23:52;101274.0;;;1.33;71.72
36834;BME280;48003;52.084;5.224;2022-11-20T08:27:06;101277.0;;;1.35;71.41
36834;BME280;48003;52.084;5.224;2022-11-20T08:28:42;101282.0;;;1.26;71.8
36834;BME280;48003;52.084;5.224;2022-11-20T08:30:18;101286.0;;;1.41;71.94
36834;BME280;48003;52.084;5.224;2022-11-20T08:31:54;101285.0;;;1.34;71.63
36834;BME280;48003;52.084;5.224;2022-11-20T08:35:09;101280.0;;;1.26;72.33
36834;BME280;48003;52.084;5.224;2022-11-20T08:36:45;101286.0;;;0.92;72.64
36834;BME280;48003;52.084;5.224;2022-11-20T08:38:21;101290.0;;;0.92;73.19
36834;BME280;48003;52.084;5.224;2022-11-20T08:41:34;101287.0;;;0.9;73.05
36834;BME280;48003;52.084;5.224;2022-11-20T08:43:10;101286.0;;;0.87;73.34
36834;BME280;48003;52.084;5.224;2022-11-20T08:44:46;101285.0;;;1.49;72.19
36834;BME280;48003;52.084;5.224;2022-11-20T08:48:01;101284.0;;;1.3;72.13
36834;BME280;48003;52.084;5.224;2022-11-20T08:49:37;101286.0;;;1.27;72.8
36834;BME280;48003;52.084;5.224;2022-11-20T08:51:14;101292.0;;;1.31;72.75
36834;BME280;48003;52.084;5.224;2022-11-20T08:52:51;101290.0;;;1.05;73.59
36834;BME280;48003;52.084;5.224;2022-11-20T08:56:04;101285.0;;;1.57;72.47
36834;BME280;48003;52.084;5.224;2022-11-20T08:57:41;101280.0;;;1.81;71.91
36834;BME280;48003;52.084;5.224;2022-11-20T08:59:17;101286.0;;;1.36;72.87
36834;BME280;48003;52.084;5.224;2022-11-20T09:02:30;101281.0;;;1.41;73.36
36834;BME280;48003;52.084;5.224;2022-11-20T09:04:06;101269.0;;;1.77;72.11
36834;BME280;48003;52.084;5.224;2022-11-20T09:05:43;101271.0;;;1.83;72.22
36834;BME280;48003;52.084;5.224;2022-11-20T09:08:55;101268.0;;;1.81;72.44
36834;BME280;48003;52.084;5.224;2022-11-20T09:10:32;101262.0;;;2.06;71.72
36834;BME280;48003;52.084;5.224;2022-11-20T09:12:08;101259.0;;;2.36;70.66
36834;BME280;48003;52.084;5.224;2022-11-20T09:13:45;101258.0;;;2.32;70.81
36834;BME280;48003;52.084;5.224;2022-11-20T09:16:59;101253.0;;;2.39;70.64
36834;BME280;48003;52.084;5.224;2022-11-20T09:18:36;101249.0;;;2.36;70.92
36834;BME280;48003;52.084;5.224;2022-11-20T09:20:14;101255.0;;;2.41;70.95
36834;BME280;48003;52.084;5.224;2022-11-20T09:23:31;101251.0;;;2.21;71.55
36834;BME280;48003;52.084;5.224;2022-11-20T09:25:08;101244.0;;;2.23;71.45
36834;BME280;48003;52.084;5.224;2022-11-20T09:26:44;101239.0;;;2.4;71.28
36834;BME280;48003;52.084;5.224;2022-11-20T09:28:21;101231.0;;;2.64;70.36
36834;BME280;48003;52.084;5.224;2022-11-20T09:31:33;101233.0;;;2.71;70.16
36834;BME280;48003;52.084;5.224;2022-11-20T09:33:10;101224.0;;;2.8;70.2
36834;BME280;48003;52.084;5.224;2022-11-20T09:34:46;101223.0;;;2.66;70.24
36834;BME280;48003;52.084;5.224;2022-11-20T09:37:58;101218.0;;;2.84;70.25
36834;BME280;48003;52.084;5.224;2022-11-20T09:39:38;101217.0;;;2.94;69.87
36834;BME280;48003;52.084;5.224;2022-11-20T09:41:36;101225.0;;;2.86;70.16
36834;BME280;48003;52.084;5.224;2022-11-20T09:43:28;101216.0;;;2.64;71.22
